Time;durP1;ratioP1;P1;durP2;ratioP2;P2;SDS_P1;SDS_P2;PMS_P1;PMS_P2;Temp;Humidity;BMP_temperature;BMP_pressure;BME280_temperature;BME280_humidity;BME280_pressure;Samples;Min_cycle;Max_cycle;Signal;HPM_P1;HPM_P2
2021/03/01 00:02:15;;;;;;;9.85;6.25;;;;;;;1.73;65.61;100321.63;5003729;28;20022;-50
2021/03/01 00:04:41;;;;;;;10.25;6.53;;;;;;;1.76;65.98;100336.16;5003785;28;20259;-50
2021/03/01 00:07:07;;;;;;;11.23;6.82;;;;;;;1.74;65.78;100333.56;5003902;28;20369;-50
2021/03/01 00:09:32;;;;;;;10.10;6.53;;;;;;;1.80;66.01;100337.97;5003824;28;20031;-50
2021/03/01 00:11:58;;;;;;;10.13;6.55;;;;;;;1.76;66.38;100324.25;4986281;28;20077;-50
2021/03/01 00:14:24;;;;;;;11.30;6.32;;;;;;;1.87;66.18;100338.16;5003677;28;20180;-50
2021/03/01 00:16:49;;;;;;;11.18;6.22;;;;;;;2.02;66.11;100332.56;5003523;28;20026;-50
2021/03/01 00:19:15;;;;;;;11.38;6.88;;;;;;;2.10;66.67;100335.28;5003630;28;20104;-50
2021/03/01 00:21:40;;;;;;;10.63;6.93;;;;;;;1.95;65.59;100340.88;5003367;28;20038;-51
2021/03/01 00:24:06;;;;;;;11.23;6.20;;;;;;;1.84;65.59;100335.53;5003536;28;20026;-51
2021/03/01 00:26:32;;;;;;;12.45;6.57;;;;;;;1.93;65.90;100346.78;4986080;28;20578;-51
2021/03/01 00:29:10;;;;;;;9.85;6.45;;;;;;;2.09;66.40;100351.44;4997072;28;20049;-51
2021/03/01 00:31:36;;;;;;;11.10;6.50;;;;;;;2.13;67.36;100357.50;5003305;28;20101;-51
2021/03/01 00:34:01;;;;;;;9.88;6.32;;;;;;;2.10;67.75;100348.06;5003294;28;20097;-51
2021/03/01 00:36:27;;;;;;;10.55;6.78;;;;;;;2.18;67.82;100369.53;5003558;28;20315;-51
2021/03/01 00:38:53;;;;;;;11.73;7.22;;;;;;;2.19;65.94;100363.59;5003100;28;20045;-51
2021/03/01 00:41:18;;;;;;;9.98;6.32;;;;;;;2.17;66.28;100355.03;5003123;28;20035;-51
2021/03/01 00:43:44;;;;;;;11.93;7.05;;;;;;;2.30;66.65;100365.56;5003105;28;20064;-50
2021/03/01 00:46:10;;;;;;;11.30;7.13;;;;;;;2.32;67.24;100363.88;5003034;28;20049;-51
2021/03/01 00:48:36;;;;;;;13.10;7.00;;;;;;;2.21;65.78;100350.88;4995714;28;20026;-50
2021/03/01 00:51:02;;;;;;;10.40;6.18;;;;;;;2.29;66.67;100371.47;5003179;28;20065;-50
2021/03/01 00:53:28;;;;;;;11.80;7.00;;;;;;;2.26;66.59;100368.88;4999055;28;20049;-50
2021/03/01 00:55:55;;;;;;;10.55;6.75;;;;;;;2.23;65.38;100367.09;5003165;28;20343;-50
2021/03/01 00:58:21;;;;;;;14.43;8.25;;;;;;;2.08;65.57;100362.47;5002956;28;20035;-50
2021/03/01 01:00:48;;;;;;;12.40;7.55;;;;;;;2.21;66.22;100361.09;4984943;28;20033;-51
2021/03/01 01:03:15;;;;;;;11.93;7.72;;;;;;;2.29;66.73;100358.72;5001663;28;20030;-51
2021/03/01 01:05:41;;;;;;;14.90;9.00;;;;;;;2.31;67.12;100363.03;5002818;28;20030;-51
2021/03/01 01:08:07;;;;;;;14.48;8.23;;;;;;;2.35;66.79;100374.16;5002943;28;20329;-51
2021/03/01 01:10:34;;;;;;;13.70;8.57;;;;;;;2.27;66.75;100374.00;5004476;28;20037;-51
2021/03/01 01:13:00;;;;;;;15.65;9.57;;;;;;;2.35;66.58;100384.41;5004196;28;20034;-51
2021/03/01 01:15:27;;;;;;;12.52;8.13;;;;;;;2.35;67.11;100395.50;5009432;28;20081;-51
2021/03/01 01:17:52;;;;;;;14.23;8.50;;;;;;;2.36;66.68;100383.56;5009167;28;20030;-51
2021/03/01 01:20:18;;;;;;;13.05;8.52;;;;;;;2.30;66.52;100386.84;4992280;28;20045;-50
2021/03/01 01:22:44;;;;;;;16.25;8.25;;;;;;;2.28;67.11;100379.97;5008380;28;20022;-50
2021/03/01 01:25:11;;;;;;;16.05;9.32;;;;;;;2.32;67.33;100399.66;5009249;28;20307;-50
2021/03/01 01:27:37;;;;;;;14.65;9.43;;;;;;;2.32;66.62;100376.66;5009298;28;20034;-50
2021/03/01 01:30:26;;;;;;;15.52;10.00;;;;;;;2.26;66.32;100385.03;5009328;28;20034;-50
2021/03/01 01:32:52;;;;;;;17.05;10.75;;;;;;;2.19;66.88;100389.13;5008540;28;20065;-50
2021/03/01 01:35:18;;;;;;;13.88;8.88;;;;;;;2.24;67.76;100387.56;5008980;28;20057;-50
2021/03/01 01:37:45;;;;;;;13.80;8.73;;;;;;;2.25;67.92;100393.53;5009061;28;20226;-50
2021/03/01 01:40:15;;;;;;;14.45;8.77;;;;;;;2.19;67.99;100395.94;5009243;28;20034;-50
2021/03/01 01:42:41;;;;;;;14.25;8.70;;;;;;;2.29;67.18;100410.66;5008932;28;20037;-50
2021/03/01 01:45:16;;;;;;;14.23;9.02;;;;;;;1.69;66.92;100319.81;4991776;28;20045;-51
2021/03/01 01:47:43;;;;;;;14.85;9.30;;;;;;;2.17;66.67;100398.47;5006664;28;20080;-51
2021/03/01 01:50:10;;;;;;;16.27;10.70;;;;;;;2.03;66.84;100387.06;5008785;28;20259;-51
2021/03/01 01:52:36;;;;;;;15.40;9.75;;;;;;;2.12;67.90;100396.63;5009014;28;20081;-51
2021/03/01 01:55:07;;;;;;;14.32;9.48;;;;;;;2.18;67.57;100396.78;5009018;28;20033;-51
2021/03/01 01:57:34;;;;;;;17.23;10.48;;;;;;;2.22;67.89;100394.34;5008926;28;20080;-51
2021/03/01 02:00:00;;;;;;;13.95;9.23;;;;;;;2.13;68.02;100380.47;5008968;28;20026;-51
2021/03/01 02:02:26;;;;;;;12.82;8.48;;;;;;;2.24;68.52;100386.72;5008952;28;20026;-51
2021/03/01 02:04:55;;;;;;;14.57;8.35;;;;;;;2.19;68.78;100399.34;5008799;28;20275;-50
2021/03/01 02:07:39;;;;;;;13.80;8.63;;;;;;;2.21;68.95;100392.63;5009022;28;20105;-52
2021/03/01 02:10:12;;;;;;;16.27;8.85;;;;;;;2.17;68.56;100387.41;5008870;28;20065;-51
2021/03/01 02:12:53;;;;;;;14.73;8.98;;;;;;;2.22;68.35;100389.25;5008738;28;20058;-51
2021/03/01 02:15:27;;;;;;;17.52;9.68;;;;;;;2.22;68.28;100399.47;5009052;28;20041;-52
2021/03/01 02:17:53;;;;;;;14.13;8.98;;;;;;;2.27;68.36;100391.91;5008893;28;20070;-52
2021/03/01 02:20:19;;;;;;;13.50;8.77;;;;;;;2.26;69.17;100399.53;5008823;28;20030;-51
2021/03/01 02:22:44;;;;;;;13.35;8.63;;;;;;;2.21;68.44;100397.72;5010693;28;20053;-51
2021/03/01 02:25:13;;;;;;;13.93;8.65;;;;;;;1.93;68.75;100349.34;5005755;28;20220;-51
2021/03/01 02:28:12;;;;;;;14.48;8.45;;;;;;;2.30;69.07;100399.63;5005307;28;20058;-51
2021/03/01 02:30:42;;;;;;;15.98;9.18;;;;;;;2.23;68.92;100415.66;4990697;28;20042;-51
2021/03/01 02:33:14;;;;;;;15.95;9.32;;;;;;;1.78;69.43;100335.38;5005450;28;20278;-51
2021/03/01 02:35:49;;;;;;;12.52;8.68;;;;;;;1.77;68.41;100358.28;5005188;28;20057;-51
2021/03/01 02:38:16;;;;;;;15.85;9.88;;;;;;;2.05;68.14;100416.94;5005522;28;20034;-51
2021/03/01 02:40:43;;;;;;;14.55;9.23;;;;;;;2.13;68.26;100416.25;5005297;28;20030;-51
2021/03/01 02:43:11;;;;;;;16.17;9.07;;;;;;;2.21;69.04;100427.53;5006401;28;20311;-51
2021/03/01 02:45:37;;;;;;;16.77;10.30;;;;;;;2.08;68.65;100416.13;5007972;28;20058;-51
2021/03/01 02:48:03;;;;;;;16.80;10.52;;;;;;;2.16;68.59;100413.78;5010717;28;20054;-51
2021/03/01 02:50:30;;;;;;;17.63;9.95;;;;;;;2.17;68.81;100416.34;5000896;28;20030;-51
2021/03/01 02:52:56;;;;;;;17.77;9.60;;;;;;;2.21;69.04;100413.06;5003351;28;20026;-51
2021/03/01 02:55:23;;;;;;;16.90;10.00;;;;;;;1.90;69.11;100356.09;5005118;28;20158;-51
2021/03/01 02:57:51;;;;;;;17.98;9.95;;;;;;;1.80;69.12;100353.28;5004956;28;20207;-51
2021/03/01 03:00:18;;;;;;;14.65;9.40;;;;;;;1.86;68.88;100368.75;5005067;28;20085;-51
2021/03/01 03:02:45;;;;;;;16.08;9.80;;;;;;;2.19;69.01;100407.03;5004713;28;20030;-49
2021/03/01 03:05:13;;;;;;;16.73;10.32;;;;;;;1.84;69.44;100347.41;5004928;28;20390;-50
2021/03/01 03:07:42;;;;;;;15.68;9.57;;;;;;;2.27;69.29;100417.44;5004996;28;20040;-51
2021/03/01 03:10:08;;;;;;;13.70;9.35;;;;;;;2.23;69.54;100411.38;5004870;28;20022;-52
2021/03/01 03:12:39;;;;;;;19.92;9.10;;;;;;;1.84;68.13;100345.75;4998289;28;20027;-50
2021/03/01 03:15:06;;;;;;;13.30;9.55;;;;;;;2.33;68.35;100414.19;5001479;28;20034;-50
2021/03/01 03:17:33;;;;;;;12.88;8.80;;;;;;;2.24;67.89;100409.72;4984729;28;20026;-50
2021/03/01 03:20:05;;;;;;;17.08;10.75;;;;;;;2.10;68.44;100422.16;5004125;28;20093;-50
2021/03/01 03:22:33;;;;;;;16.17;10.18;;;;;;;2.19;69.08;100412.13;5004463;28;20030;-51
2021/03/01 03:24:59;;;;;;;19.65;9.73;;;;;;;2.16;67.92;100413.78;5004350;28;20026;-50
2021/03/01 03:27:25;;;;;;;16.80;9.98;;;;;;;2.11;67.72;100411.09;5003960;28;20362;-50
2021/03/01 03:29:50;;;;;;;16.15;10.27;;;;;;;2.10;67.96;100401.72;5004199;28;20108;-50
2021/03/01 03:32:16;;;;;;;14.27;8.90;;;;;;;2.16;68.55;100419.72;5006002;28;20398;-50
2021/03/01 03:34:42;;;;;;;15.90;10.10;;;;;;;2.12;68.89;100410.25;5004000;28;20263;-52
2021/03/01 03:37:20;;;;;;;16.23;10.85;;;;;;;1.77;68.89;100354.06;5004446;28;20046;-51
2021/03/01 03:39:48;;;;;;;14.10;9.50;;;;;;;2.24;68.82;100425.91;5004336;28;20034;-51
2021/03/01 03:42:18;;;;;;;15.43;9.70;;;;;;;1.88;68.97;100370.53;5004269;28;20026;-50
2021/03/01 03:44:45;;;;;;;17.27;11.82;;;;;;;2.16;68.75;100429.09;5004124;28;20030;-50
2021/03/01 03:47:12;;;;;;;16.13;10.60;;;;;;;2.01;68.90;100430.44;4998745;28;20033;-50
2021/03/01 03:49:38;;;;;;;16.42;10.90;;;;;;;2.07;69.35;100429.75;4996430;28;20046;-51
2021/03/01 03:52:06;;;;;;;17.52;10.73;;;;;;;1.67;68.95;100367.44;5000798;28;20056;-50
2021/03/01 03:54:35;;;;;;;18.05;11.02;;;;;;;2.09;69.38;100445.94;5003815;28;20031;-52
2021/03/01 03:57:03;;;;;;;17.08;10.98;;;;;;;1.75;69.25;100376.13;4986481;28;20034;-52
2021/03/01 03:59:32;;;;;;;15.88;10.30;;;;;;;1.63;69.35;100368.19;5001577;28;20030;-52
2021/03/01 04:01:58;;;;;;;17.23;10.27;;;;;;;1.98;70.01;100437.16;5002793;28;20101;-51
2021/03/01 04:04:25;;;;;;;18.63;11.43;;;;;;;1.65;69.64;100371.63;5003735;28;20342;-51
2021/03/01 04:06:52;;;;;;;15.48;9.32;;;;;;;2.07;70.12;100428.03;5003549;28;20030;-51
2021/03/01 04:09:20;;;;;;;17.88;10.52;;;;;;;1.69;69.99;100370.88;5003623;28;20080;-52
2021/03/01 04:11:48;;;;;;;14.13;9.57;;;;;;;2.07;71.24;100432.28;5000272;28;20211;-51
2021/03/01 04:14:17;;;;;;;16.08;10.00;;;;;;;2.03;71.05;100458.56;4998815;28;20033;-51
2021/03/01 04:16:50;;;;;;;15.05;9.45;;;;;;;1.73;71.13;100378.66;4999320;28;20341;-51
2021/03/01 04:19:18;;;;;;;15.05;10.23;;;;;;;2.00;71.22;100417.63;5003622;28;20030;-51
2021/03/01 04:21:46;;;;;;;14.85;10.60;;;;;;;1.66;71.11;100363.16;5003073;28;20307;-50
2021/03/01 04:24:13;;;;;;;16.27;9.68;;;;;;;1.94;71.63;100430.22;5001396;28;20026;-49
2021/03/01 04:26:39;;;;;;;15.38;9.38;;;;;;;2.12;71.31;100433.25;5003205;28;20030;-50
2021/03/01 04:29:05;;;;;;;16.65;10.93;;;;;;;1.92;70.99;100432.75;5000539;28;20030;-50
2021/03/01 04:31:32;;;;;;;17.40;11.18;;;;;;;2.08;71.45;100434.00;5003244;28;20068;-50
2021/03/01 04:33:59;;;;;;;16.92;10.45;;;;;;;2.09;71.83;100433.19;4995989;28;20042;-51
2021/03/01 04:36:26;;;;;;;14.98;9.18;;;;;;;2.10;72.16;100442.59;5003410;28;20082;-52
2021/03/01 04:38:52;;;;;;;13.75;9.00;;;;;;;2.10;71.99;100447.69;5002995;28;20026;-51
2021/03/01 04:41:18;;;;;;;14.98;9.07;;;;;;;2.01;73.04;100443.22;5002975;28;20042;-51
2021/03/01 04:43:45;;;;;;;14.75;9.20;;;;;;;2.09;72.73;100434.88;5002605;28;20030;-50
2021/03/01 04:46:12;;;;;;;11.55;7.78;;;;;;;1.84;72.63;100396.81;5002541;28;20041;-50
2021/03/01 04:48:39;;;;;;;13.27;9.25;;;;;;;2.05;73.23;100433.94;5002362;28;20034;-51
2021/03/01 04:51:05;;;;;;;13.25;8.07;;;;;;;2.04;73.84;100452.66;4995821;28;20033;-52
2021/03/01 04:53:33;;;;;;;9.77;7.10;;;;;;;2.13;73.10;100447.75;4985224;28;20046;-50
2021/03/01 04:56:02;;;;;;;12.48;7.72;;;;;;;2.10;73.60;100457.06;5002956;28;20034;-51
2021/03/01 04:58:29;;;;;;;11.05;7.78;;;;;;;2.14;74.13;100459.72;5001360;28;20030;-51
2021/03/01 05:00:59;;;;;;;11.93;6.82;;;;;;;2.00;73.68;100448.28;4991393;28;20041;-51
2021/03/01 05:03:25;;;;;;;13.07;8.05;;;;;;;2.12;74.20;100468.16;4992725;28;20029;-51
2021/03/01 05:05:51;;;;;;;10.70;6.03;;;;;;;2.02;74.63;100459.41;4999831;28;20026;-50
2021/03/01 05:08:17;;;;;;;8.68;6.75;;;;;;;2.03;74.06;100454.31;5001466;28;20023;-51
2021/03/01 05:10:44;;;;;;;8.02;5.68;;;;;;;1.78;74.30;100391.56;4996703;28;20022;-51
2021/03/01 05:13:10;;;;;;;8.10;5.63;;;;;;;2.12;74.70;100456.25;4999456;28;20058;-51
2021/03/01 05:15:36;;;;;;;7.57;5.97;;;;;;;1.91;74.92;100448.91;5000665;28;20026;-52
2021/03/01 05:18:02;;;;;;;9.88;5.65;;;;;;;2.01;75.01;100467.88;5000095;28;20030;-52
2021/03/01 05:20:28;;;;;;;8.65;6.38;;;;;;;2.04;74.74;100460.31;4995839;28;20070;-53
2021/03/01 05:22:53;;;;;;;8.40;5.78;;;;;;;2.16;74.48;100458.06;5001791;28;20358;-52
2021/03/01 05:25:19;;;;;;;7.47;5.50;;;;;;;2.14;74.72;100467.38;5002675;28;20223;-52
2021/03/01 05:27:45;;;;;;;8.55;5.30;;;;;;;2.24;74.33;100460.81;5002334;28;20219;-51
2021/03/01 05:30:11;;;;;;;7.65;5.60;;;;;;;2.24;74.47;100463.38;5002209;28;20137;-52
2021/03/01 05:32:37;;;;;;;9.10;5.50;;;;;;;2.22;74.60;100460.78;5002188;28;20022;-51
2021/03/01 05:35:05;;;;;;;9.02;6.15;;;;;;;2.28;74.48;100467.75;5002320;28;20050;-51
2021/03/01 05:37:31;;;;;;;11.90;6.97;;;;;;;2.34;74.01;100460.22;4951200;28;20066;-51
2021/03/01 05:39:57;;;;;;;7.93;6.00;;;;;;;2.37;73.80;100455.16;5001836;28;20057;-51
2021/03/01 05:42:26;;;;;;;10.60;6.25;;;;;;;2.24;73.83;100445.50;5002184;28;20327;-51
2021/03/01 05:44:52;;;;;;;8.77;5.97;;;;;;;2.34;73.75;100455.09;5002194;28;20031;-51
2021/03/01 05:47:19;;;;;;;10.07;6.85;;;;;;;2.29;74.18;100451.56;4997342;28;20027;-51
2021/03/01 05:49:46;;;;;;;7.88;6.15;;;;;;;2.35;73.87;100450.84;4994454;28;20030;-51
2021/03/01 05:52:17;;;;;;;12.48;6.80;;;;;;;2.48;73.12;100460.56;4997550;28;20053;-51
2021/03/01 05:54:45;;;;;;;9.73;7.03;;;;;;;2.63;73.02;100464.31;4998998;28;20014;-51
2021/03/01 05:57:12;;;;;;;10.95;7.68;;;;;;;2.54;73.25;100470.06;5003973;28;20033;-50
2021/03/01 05:59:41;;;;;;;10.05;6.47;;;;;;;2.53;73.27;100455.53;4996384;28;20332;-51
2021/03/01 06:02:07;;;;;;;10.30;7.50;;;;;;;2.57;72.57;100467.59;5000278;28;20026;-52
2021/03/01 06:04:33;;;;;;;11.13;6.90;;;;;;;2.62;73.12;100472.78;5005635;28;20090;-51
2021/03/01 06:06:59;;;;;;;12.10;7.57;;;;;;;2.47;72.38;100469.03;5005868;28;20029;-51
2021/03/01 06:09:25;;;;;;;9.35;7.47;;;;;;;2.68;72.16;100465.25;5005966;28;20038;-51
2021/03/01 06:11:55;;;;;;;9.48;6.90;;;;;;;2.76;71.78;100469.75;5005455;28;20022;-50
2021/03/01 06:14:21;;;;;;;13.32;6.88;;;;;;;2.75;71.86;100444.09;5005702;28;20224;-53
2021/03/01 06:17:11;;;;;;;11.32;7.30;;;;;;;2.76;71.37;100451.84;5003705;28;20026;-52
2021/03/01 06:19:49;;;;;;;9.60;7.57;;;;;;;2.77;72.18;100452.69;5004938;28;20104;-51
2021/03/01 06:22:16;;;;;;;10.60;6.53;;;;;;;2.89;70.64;100444.44;5003131;28;20030;-51
2021/03/01 06:24:41;;;;;;;11.23;6.78;;;;;;;3.03;69.49;100447.28;4997116;28;20263;-52
2021/03/01 06:27:11;;;;;;;8.60;5.78;;;;;;;2.96;69.42;100461.63;4999281;28;20049;-52
2021/03/01 06:30:04;;;;;;;7.63;5.72;;;;;;;3.27;68.06;100462.31;5005026;28;20033;-53
2021/03/01 06:32:31;;;;;;;10.88;6.43;;;;;;;3.14;67.11;100458.63;4974981;28;20058;-53
2021/03/01 06:34:57;;;;;;;9.13;6.47;;;;;;;3.30;67.57;100443.59;4976363;28;20069;-52
2021/03/01 06:37:23;;;;;;;10.65;5.60;;;;;;;3.24;66.53;100470.78;4984928;28;20282;-51
2021/03/01 06:39:51;;;;;;;8.82;5.65;;;;;;;3.11;65.96;100492.69;4981493;28;20103;-51
2021/03/01 06:42:19;;;;;;;6.68;4.78;;;;;;;3.25;65.08;100476.75;4981610;28;20043;-51
2021/03/01 06:44:57;;;;;;;7.25;4.97;;;;;;;3.27;65.10;100477.66;4984178;28;20030;-51
2021/03/01 06:47:55;;;;;;;7.95;4.90;;;;;;;3.42;63.36;100483.09;4983645;28;20030;-52
2021/03/01 06:50:30;;;;;;;6.28;4.18;;;;;;;3.24;62.66;100496.38;4984128;28;20200;-51
2021/03/01 06:53:11;;;;;;;6.05;4.03;;;;;;;3.47;61.51;100496.00;4982400;28;20042;-52
2021/03/01 06:55:38;;;;;;;6.07;4.10;;;;;;;3.15;61.02;100513.22;4981150;28;20022;-51
2021/03/01 06:58:18;;;;;;;5.97;3.78;;;;;;;3.37;61.34;100502.63;4984881;28;20101;-52
2021/03/01 07:00:44;;;;;;;7.57;4.80;;;;;;;3.45;61.65;100506.22;4982472;28;20054;-51
2021/03/01 07:03:23;;;;;;;4.43;2.78;;;;;;;3.19;59.28;100515.91;4982446;28;20108;-52
2021/03/01 07:05:50;;;;;;;5.75;3.67;;;;;;;2.97;59.13;100494.06;4982476;28;20307;-52
2021/03/01 07:08:33;;;;;;;3.67;3.00;;;;;;;2.75;58.56;100452.66;4974901;28;20094;-52
2021/03/01 07:10:59;;;;;;;4.25;2.67;;;;;;;2.99;59.43;100509.47;4984646;28;20300;-52
2021/03/01 07:13:29;;;;;;;3.92;2.50;;;;;;;3.11;57.50;100510.59;4970725;28;20030;-52
2021/03/01 07:15:56;;;;;;;3.90;2.45;;;;;;;3.34;56.99;100500.00;4978121;28;20098;-52
2021/03/01 07:18:23;;;;;;;3.67;2.63;;;;;;;3.42;58.95;100500.16;4982371;28;20029;-52
2021/03/01 07:20:50;;;;;;;7.35;4.32;;;;;;;3.40;57.54;100504.38;4970243;28;20041;-51
2021/03/01 07:23:19;;;;;;;5.30;3.10;;;;;;;3.60;58.27;100492.84;4974251;28;20399;-51
2021/03/01 07:25:45;;;;;;;4.70;3.00;;;;;;;3.46;57.15;100489.13;4973039;28;20035;-51
2021/03/01 07:28:17;;;;;;;6.20;3.00;;;;;;;3.65;57.93;100484.38;4980052;28;20053;-52
2021/03/01 07:30:45;;;;;;;4.65;2.97;;;;;;;3.54;57.67;100492.72;4983162;28;20094;-52
2021/03/01 07:33:15;;;;;;;3.42;2.78;;;;;;;3.55;55.15;100491.00;4983888;28;20031;-52
2021/03/01 07:35:41;;;;;;;4.50;2.65;;;;;;;3.57;55.32;100490.22;4984024;28;20062;-53
2021/03/01 07:38:08;;;;;;;3.78;2.60;;;;;;;3.56;55.80;100483.41;4984079;28;20049;-52
2021/03/01 07:40:35;;;;;;;5.03;2.90;;;;;;;3.62;53.74;100480.94;4973102;28;20051;-52
2021/03/01 07:43:05;;;;;;;3.45;2.67;;;;;;;3.53;55.89;100485.88;4976621;28;20065;-52
2021/03/01 07:45:32;;;;;;;3.00;2.70;;;;;;;3.48;56.17;100492.63;4984395;28;20042;-51
2021/03/01 07:48:01;;;;;;;4.57;2.60;;;;;;;3.25;55.51;100485.31;4984474;28;20042;-52
2021/03/01 07:50:35;;;;;;;2.97;2.38;;;;;;;2.97;56.52;100434.38;4982816;28;20042;-52
2021/03/01 07:53:00;;;;;;;2.58;2.22;;;;;;;3.10;55.89;100474.75;4984352;28;20030;-51
2021/03/01 07:55:26;;;;;;;3.83;2.22;;;;;;;3.31;56.60;100497.38;4984633;28;20650;-51
2021/03/01 07:58:04;;;;;;;3.63;1.80;;;;;;;2.59;56.16;100438.66;4982971;28;20038;-52
2021/03/01 08:00:33;;;;;;;2.55;1.70;;;;;;;2.79;55.58;100503.88;4979443;28;20335;-51
2021/03/01 08:03:19;;;;;;;2.83;2.13;;;;;;;3.04;55.45;100493.38;4961597;28;20574;-51
2021/03/01 08:05:51;;;;;;;3.45;1.60;;;;;;;3.05;56.13;100492.56;4973704;28;20078;-51
2021/03/01 08:08:40;;;;;;;1.70;1.52;;;;;;;3.00;55.17;100483.06;4972991;28;20043;-49
2021/03/01 08:11:06;;;;;;;3.53;1.90;;;;;;;3.03;55.40;100489.09;4983981;28;20057;-52
2021/03/01 08:13:32;;;;;;;4.85;2.10;;;;;;;3.14;56.14;100493.59;4976556;28;20342;-52
2021/03/01 08:16:17;;;;;;;3.80;2.20;;;;;;;3.24;56.44;100473.34;4983974;28;20327;-51
2021/03/01 08:18:54;;;;;;;2.95;1.90;;;;;;;3.03;56.53;100504.44;4983740;28;20035;-50
2021/03/01 08:21:20;;;;;;;3.88;2.15;;;;;;;3.29;55.85;100499.03;4977622;28;20041;-52
2021/03/01 08:23:47;;;;;;;6.07;2.20;;;;;;;3.26;55.73;100476.81;4970955;28;20038;-51
2021/03/01 08:26:33;;;;;;;5.93;2.47;;;;;;;3.05;55.45;100427.72;4971287;28;20027;-51
2021/03/01 08:29:01;;;;;;;3.17;2.45;;;;;;;3.38;55.68;100478.75;4976594;28;20058;-51
2021/03/01 08:31:32;;;;;;;2.10;1.80;;;;;;;2.97;56.97;100409.66;4973603;28;20047;-52
2021/03/01 08:34:24;;;;;;;3.42;2.20;;;;;;;3.35;57.88;100463.34;4972513;28;20034;-52
2021/03/01 08:36:50;;;;;;;;;;;;;;;3.14;55.24;100455.22;4976472;28;20043;-51
2021/03/01 08:39:16;;;;;;;3.58;2.05;;;;;;;3.15;55.87;100444.13;4979179;28;19959;-51
2021/03/01 08:41:44;;;;;;;3.53;1.88;;;;;;;3.00;56.30;100448.09;4983038;28;20038;-51
2021/03/01 08:44:21;;;;;;;2.30;1.80;;;;;;;3.24;56.79;100396.56;4976289;28;20026;-51
2021/03/01 08:46:48;;;;;;;3.15;1.70;;;;;;;3.65;55.68;100433.16;4976428;28;20073;-52
2021/03/01 08:49:22;;;;;;;2.53;1.75;;;;;;;3.55;55.79;100439.81;4979705;28;20045;-52
2021/03/01 08:51:48;;;;;;;5.00;2.20;;;;;;;3.59;55.36;100436.47;4985670;28;20038;-52
2021/03/01 08:54:30;;;;;;;4.78;2.30;;;;;;;3.33;55.45;100380.50;4983638;28;20035;-52
2021/03/01 08:57:07;;;;;;;4.45;2.40;;;;;;;3.51;55.78;100372.31;4982254;28;20023;-52
2021/03/01 08:59:33;;;;;;;3.42;2.30;;;;;;;3.71;54.95;100430.75;4983693;28;20027;-52
2021/03/01 09:02:00;;;;;;;4.93;2.40;;;;;;;3.59;55.11;100431.34;4982266;28;20573;-52
2021/03/01 09:04:26;;;;;;;3.55;2.10;;;;;;;3.55;54.96;100420.19;4980044;28;20023;-52
2021/03/01 09:06:52;;;;;;;3.15;2.40;;;;;;;3.61;54.87;100422.00;4982366;28;20223;-52
2021/03/01 09:09:17;;;;;;;3.60;2.22;;;;;;;3.42;56.25;100423.34;4983329;28;20235;-52
2021/03/01 09:11:43;;;;;;;3.03;2.38;;;;;;;3.66;54.66;100420.38;4983050;28;20027;-53
2021/03/01 09:14:09;;;;;;;3.28;2.38;;;;;;;3.50;54.53;100418.38;4983241;28;20110;-53
2021/03/01 09:16:40;;;;;;;3.08;2.50;;;;;;;3.28;56.04;100371.91;4982894;28;20034;-51
2021/03/01 09:19:13;;;;;;;2.58;2.30;;;;;;;3.67;55.35;100426.38;4983574;28;20202;-51
2021/03/01 09:21:41;;;;;;;3.28;2.30;;;;;;;3.01;54.94;100359.41;4983088;28;20026;-51
2021/03/01 09:24:13;;;;;;;3.95;2.75;;;;;;;3.40;56.21;100400.25;4982949;28;20038;-52
2021/03/01 09:26:42;;;;;;;3.20;2.47;;;;;;;3.21;56.28;100380.28;4983033;28;20038;-52
2021/03/01 09:29:11;;;;;;;2.80;2.30;;;;;;;2.97;57.10;100371.28;4983128;28;20031;-51
2021/03/01 09:31:39;;;;;;;3.22;2.50;;;;;;;3.51;56.05;100420.13;4984159;28;20069;-51
2021/03/01 09:34:06;;;;;;;3.20;2.70;;;;;;;3.28;56.50;100428.22;4987033;28;20046;-51
2021/03/01 09:36:32;;;;;;;2.65;2.33;;;;;;;3.21;57.80;100427.22;4987101;28;20043;-51
2021/03/01 09:38:59;;;;;;;2.55;2.20;;;;;;;3.34;57.64;100420.63;4986994;28;20046;-53
2021/03/01 09:41:36;;;;;;;2.33;2.13;;;;;;;3.05;57.70;100414.91;4986938;28;20222;-52
2021/03/01 09:44:02;;;;;;;3.65;2.30;;;;;;;3.20;58.71;100420.34;4986449;28;20256;-52
2021/03/01 09:46:29;;;;;;;3.05;2.38;;;;;;;2.92;57.58;100395.88;4986878;28;20029;-52
2021/03/01 09:49:02;;;;;;;3.05;2.63;;;;;;;3.00;58.02;100373.03;4984974;28;20080;-52
2021/03/01 09:51:29;;;;;;;3.13;2.83;;;;;;;3.42;57.21;100423.34;4985427;28;20035;-51
2021/03/01 09:54:06;;;;;;;2.72;2.35;;;;;;;3.39;57.89;100411.38;4986619;28;20038;-51
2021/03/01 09:56:45;;;;;;;3.22;2.25;;;;;;;3.55;57.97;100401.38;4986712;28;20064;-51
2021/03/01 09:59:12;;;;;;;2.78;2.20;;;;;;;3.47;57.76;100393.56;4986848;28;20037;-51
2021/03/01 10:01:38;;;;;;;2.35;1.92;;;;;;;3.29;58.27;100401.75;4986528;28;20054;-53
2021/03/01 10:04:04;;;;;;;2.47;2.17;;;;;;;3.31;58.43;100406.91;4986397;28;20224;-52
2021/03/01 10:06:42;;;;;;;2.60;2.00;;;;;;;3.38;59.64;100396.81;4986500;28;20332;-51
2021/03/01 10:09:11;;;;;;;1.80;1.70;;;;;;;3.38;58.30;100396.81;4986493;28;20034;-51
2021/03/01 10:11:38;;;;;;;2.35;2.10;;;;;;;3.27;58.84;100393.19;4986223;28;20046;-51
2021/03/01 10:14:08;;;;;;;2.47;2.15;;;;;;;3.40;59.80;100389.19;4986285;28;20208;-52
2021/03/01 10:16:39;;;;;;;2.42;2.00;;;;;;;3.19;58.66;100323.94;4986470;28;20077;-51
2021/03/01 10:19:21;;;;;;;1.92;1.52;;;;;;;3.33;59.67;100400.13;4986038;28;20215;-51
2021/03/01 10:21:47;;;;;;;;;;;;;;;3.25;60.74;100377.81;4935027;28;20050;-51
2021/03/01 10:24:15;;;;;;;1.52;1.20;;;;;;;3.26;60.84;100379.53;4999984;28;19937;-51
2021/03/01 10:27:07;;;;;;;3.42;1.70;;;;;;;3.28;61.20;100393.22;5005527;28;20030;-52
2021/03/01 10:29:40;;;;;;;3.60;1.48;;;;;;;3.20;60.22;100396.47;5005485;28;20019;-52
2021/03/01 10:32:26;;;;;;;1.40;1.30;;;;;;;3.34;60.15;100391.63;4987964;28;20044;-51
2021/03/01 10:34:53;;;;;;;1.92;1.30;;;;;;;3.07;60.59;100400.47;5004668;28;21170;-52
2021/03/01 10:37:26;;;;;;;2.08;1.52;;;;;;;3.01;60.95;100362.84;5005339;28;20102;-51
2021/03/01 10:39:53;;;;;;;1.67;1.58;;;;;;;2.98;61.85;100379.78;5005407;28;20256;-52
2021/03/01 10:42:22;;;;;;;1.42;1.30;;;;;;;3.17;61.61;100364.00;4987207;28;20094;-50
2021/03/01 10:44:51;;;;;;;1.35;1.20;;;;;;;3.15;61.66;100370.78;5003897;28;20031;-51
2021/03/01 10:47:31;;;;;;;2.33;1.17;;;;;;;2.85;61.45;100340.31;4987879;28;20114;-52
2021/03/01 10:50:03;;;;;;;1.83;1.00;;;;;;;2.79;61.69;100358.94;5005149;28;20034;-52
2021/03/01 10:52:29;;;;;;;1.00;1.00;;;;;;;2.97;61.57;100370.41;5005094;28;20030;-51
2021/03/01 10:54:57;;;;;;;1.50;1.23;;;;;;;2.63;60.84;100296.41;5004920;28;20232;-52
2021/03/01 10:57:24;;;;;;;1.17;1.08;;;;;;;3.11;61.09;100358.75;5004870;28;20057;-52
2021/03/01 10:59:54;;;;;;;1.77;1.20;;;;;;;3.13;61.55;100359.63;5003565;28;20030;-51
2021/03/01 11:02:21;;;;;;;1.33;1.20;;;;;;;3.09;62.29;100345.06;4987330;28;20026;-50
2021/03/01 11:04:48;;;;;;;1.30;1.10;;;;;;;3.19;61.77;100351.22;5003014;28;20034;-52
2021/03/01 11:07:14;;;;;;;9.88;1.30;;;;;;;3.24;60.72;100345.38;5005127;28;20105;-52
2021/03/01 11:09:41;;;;;;;1.65;1.00;;;;;;;3.41;61.89;100344.81;4986972;28;20050;-52
2021/03/01 11:12:07;;;;;;;1.95;1.30;;;;;;;3.34;60.67;100332.75;4986831;28;20034;-53
2021/03/01 11:14:33;;;;;;;2.95;1.30;;;;;;;2.97;62.54;100319.25;4987109;28;20037;-52
2021/03/01 11:16:59;;;;;;;1.02;0.90;;;;;;;3.28;61.42;100325.81;5004390;28;20034;-51
2021/03/01 11:19:25;;;;;;;1.98;1.33;;;;;;;3.27;60.75;100317.25;5004719;28;20387;-52
2021/03/01 11:21:51;;;;;;;3.00;1.33;;;;;;;3.33;60.53;100325.91;5004529;28;20026;-52
2021/03/01 11:24:22;;;;;;;2.20;1.60;;;;;;;3.39;60.88;100319.19;5004223;28;20030;-53
2021/03/01 11:26:49;;;;;;;1.83;1.27;;;;;;;2.97;61.03;100245.06;5002996;28;20172;-52
2021/03/01 11:29:16;;;;;;;2.17;1.27;;;;;;;3.38;61.86;100325.16;5004509;28;20084;-52
2021/03/01 11:31:41;;;;;;;1.60;1.30;;;;;;;3.25;61.69;100306.16;5004055;28;20315;-53
2021/03/01 11:34:08;;;;;;;2.15;1.20;;;;;;;3.54;61.33;100316.03;5003984;28;20029;-52
2021/03/01 11:36:34;;;;;;;1.10;1.00;;;;;;;3.26;61.64;100292.53;5004141;28;20042;-52
2021/03/01 11:39:00;;;;;;;1.30;1.02;;;;;;;3.44;61.81;100286.00;5003825;28;20026;-51